Arden Hills, Minnesota
Current Conditions -  °F | °C
As of 11:45 AM on Friday 19 Dec 2014 (Local Time) from KANE Reporting Station
Overcast Overcast  
Wind Chill: 18°   Ceiling: 1400
Heat Index: 27°   Visibility: 10mi
Dew Point: 23°   Wind: 8mph
Humidity: 86%   Direction: 140°SE
Pressure: 30.22"   Gusts: NA
Location:  45.0848°N, 93.136°W
Report Text: KANE 191745Z 14007KT 10SM OVC014 M03/M05 A3022
Loading
Personal Weather Stations






























Interactive Weather Map New forecast layout! Learn more

10-Day Weather Forecast

Advertisements
Track Severe Weather on mobile